createdAt,value
2018-04-12T00:00:59.685Z,28.67
2018-04-12T00:03:27.153Z,28.73
2018-04-12T00:05:54.604Z,30.53
2018-04-12T00:08:22.069Z,31.20
2018-04-12T00:10:49.528Z,28.30
2018-04-12T00:13:16.989Z,31.93
2018-04-12T00:15:44.449Z,29.43
2018-04-12T00:18:11.912Z,31.47
2018-04-12T00:20:39.373Z,30.83
2018-04-12T00:23:06.849Z,27.97
2018-04-12T00:25:34.329Z,31.03
2018-04-12T00:28:01.814Z,28.30
2018-04-12T00:30:29.265Z,34.90
2018-04-12T00:32:56.728Z,37.53
2018-04-12T00:35:24.185Z,42.10
2018-04-12T00:37:51.677Z,34.83
2018-04-12T00:40:19.147Z,30.80
2018-04-12T00:42:46.606Z,30.83
2018-04-12T00:45:14.069Z,30.17
2018-04-12T00:47:41.525Z,28.93
2018-04-12T00:50:09.002Z,41.23
2018-04-12T00:52:36.472Z,28.60
2018-04-12T00:55:03.950Z,33.53
2018-04-12T00:57:32.176Z,32.40
2018-04-12T00:59:59.633Z,32.10
2018-04-12T01:02:27.110Z,32.47
2018-04-12T01:04:54.561Z,31.13
2018-04-12T01:07:22.102Z,28.03
2018-04-12T01:09:49.566Z,33.27
2018-04-12T01:12:17.033Z,27.73
2018-04-12T01:14:44.494Z,31.57
2018-04-12T01:17:11.961Z,27.57
2018-04-12T01:19:39.416Z,28.97
2018-04-12T01:22:06.889Z,27.60
2018-04-12T01:24:34.348Z,28.40
2018-04-12T01:27:01.818Z,30.60
2018-04-12T01:29:30.038Z,28.73
2018-04-12T01:31:57.500Z,28.87
2018-04-12T01:34:24.984Z,33.10
2018-04-12T01:36:52.441Z,29.77
2018-04-12T01:39:19.897Z,30.73
2018-04-12T01:41:47.349Z,29.87
2018-04-12T01:44:14.825Z,33.53
2018-04-12T01:46:42.288Z,31.27
2018-04-12T01:49:09.752Z,35.83
2018-04-12T01:51:37.981Z,30.73
2018-04-12T01:54:05.460Z,33.40
2018-04-12T01:56:32.917Z,34.67
2018-04-12T01:59:00.388Z,53.80
2018-04-12T02:01:27.849Z,35.97
2018-04-12T02:03:56.092Z,46.43
2018-04-12T02:06:23.549Z,31.23
2018-04-12T02:08:51.027Z,36.23
2018-04-12T02:11:18.477Z,32.60
2018-04-12T02:13:45.937Z,32.73
2018-04-12T02:16:13.408Z,35.67
2018-04-12T02:18:41.638Z,35.17
2018-04-12T02:21:09.886Z,32.53
2018-04-12T02:23:37.333Z,33.93
2018-04-12T02:26:04.801Z,33.50
2018-04-12T02:28:32.263Z,32.80
2018-04-12T02:30:59.729Z,31.87
2018-04-12T02:33:27.188Z,39.70
2018-04-12T02:35:54.675Z,36.30
2018-04-12T02:38:22.141Z,29.10
2018-04-12T02:40:49.601Z,33.30
2018-04-12T02:43:17.832Z,30.80
2018-04-12T02:45:45.293Z,29.23
2018-04-12T02:48:12.766Z,28.43
2018-04-12T02:50:40.267Z,30.17
2018-04-12T02:53:07.709Z,32.23
2018-04-12T02:55:35.929Z,29.53
2018-04-12T02:58:03.397Z,34.27
2018-04-12T03:00:30.855Z,30.23
2018-04-12T03:02:58.321Z,29.37
2018-04-12T03:05:25.769Z,30.37
2018-04-12T03:07:53.243Z,31.63
2018-04-12T03:10:21.225Z,30.10
2018-04-12T03:12:48.689Z,28.47
2018-04-12T03:15:16.180Z,28.37
2018-04-12T03:17:43.649Z,29.93
2018-04-12T03:20:11.105Z,31.37
2018-04-12T03:22:38.597Z,28.13
2018-04-12T03:25:06.065Z,29.97
2018-04-12T03:27:33.511Z,33.07
2018-04-12T03:30:00.984Z,32.73
2018-04-12T03:32:28.437Z,32.40
2018-04-12T03:34:55.916Z,34.50
2018-04-12T03:37:24.141Z,30.87
2018-04-12T03:39:51.617Z,32.30
2018-04-12T03:42:19.089Z,29.50
2018-04-12T03:44:46.552Z,34.53
2018-04-12T03:47:14.008Z,31.30
2018-04-12T03:49:41.537Z,38.53
2018-04-12T03:52:08.936Z,33.90
2018-04-12T03:54:36.429Z,36.50
2018-04-12T03:57:03.886Z,32.30
2018-04-12T03:59:31.341Z,28.30
2018-04-12T04:01:58.806Z,30.70
2018-04-12T04:04:26.270Z,30.60
2018-04-12T04:06:53.744Z,30.67
2018-04-12T04:09:21.230Z,26.80
2018-04-12T04:11:48.713Z,23.07
2018-04-12T04:14:27.996Z,25.73
2018-04-12T04:17:07.334Z,25.00
2018-04-12T04:19:46.555Z,29.47
2018-04-12T04:22:14.029Z,30.97
2018-04-12T04:24:41.480Z,22.30
2018-04-12T04:27:08.952Z,23.13
2018-04-12T04:29:36.401Z,22.03
2018-04-12T04:32:03.889Z,29.53
2018-04-12T04:34:32.181Z,25.30
2018-04-12T04:36:59.636Z,28.20
2018-04-12T04:39:27.136Z,20.53
2018-04-12T04:41:54.593Z,23.53
2018-04-12T04:44:22.058Z,19.13
2018-04-12T04:46:49.521Z,25.03
2018-04-12T04:49:17.015Z,22.00
2018-04-12T04:51:44.467Z,18.83
2018-04-12T04:54:11.933Z,18.03
2018-04-12T04:56:39.396Z,17.97
2018-04-12T04:59:06.865Z,18.23
2018-04-12T05:01:35.105Z,18.73
2018-04-12T05:04:02.579Z,17.23
2018-04-12T05:06:30.033Z,17.60
2018-04-12T05:08:57.501Z,21.77
2018-04-12T05:11:24.973Z,15.57
2018-04-12T05:13:52.433Z,19.83
2018-04-12T05:16:19.901Z,24.93
2018-04-12T05:18:47.357Z,17.30
2018-04-12T05:21:14.827Z,21.97
2018-04-12T05:23:42.288Z,14.90
2018-04-12T05:26:09.752Z,19.00
2018-04-12T05:28:37.213Z,17.43
2018-04-12T05:31:04.685Z,16.67
2018-04-12T05:33:32.137Z,19.40
2018-04-12T05:35:59.621Z,17.43
2018-04-12T05:38:27.077Z,26.87
2018-04-12T05:40:54.755Z,16.37
2018-04-12T05:43:23.153Z,18.60
2018-04-12T05:45:50.618Z,20.10
2018-04-12T05:48:18.084Z,15.83
2018-04-12T05:50:45.542Z,21.03
2018-04-12T05:53:13.001Z,30.80
2018-04-12T05:55:41.220Z,29.97
2018-04-12T05:58:09.376Z,30.10
2018-04-12T06:00:37.008Z,23.63
2018-04-12T06:03:04.468Z,26.33
2018-04-12T06:05:32.137Z,30.47
2018-04-12T06:07:59.616Z,20.23
2018-04-12T06:10:27.125Z,18.17
2018-04-12T06:12:54.876Z,19.70
2018-04-12T06:15:22.541Z,16.07
2018-04-12T06:17:50.033Z,15.50
2018-04-12T06:20:17.493Z,20.63
2018-04-12T06:22:44.949Z,16.87
2018-04-12T06:25:12.477Z,17.40
2018-04-12T06:27:40.042Z,12.27
2018-04-12T06:30:07.505Z,16.87
2018-04-12T06:32:35.744Z,21.80
2018-04-12T06:35:03.212Z,13.70
2018-04-12T06:54:47.952Z,15.83
2018-04-12T06:57:15.477Z,12.40
2018-04-12T06:59:43.013Z,13.20
2018-04-12T07:02:10.783Z,11.83
2018-04-12T07:04:38.396Z,15.27
2018-04-12T07:07:05.929Z,8.17
2018-04-12T07:09:33.453Z,25.90
2018-04-12T07:12:01.072Z,17.27
2018-04-12T07:14:28.601Z,7.27
2018-04-12T07:16:56.057Z,10.87
2018-04-12T07:19:23.529Z,10.93
2018-04-12T07:21:51.045Z,12.23
2018-04-12T07:24:18.509Z,11.03
2018-04-12T07:26:45.965Z,10.10
2018-04-12T07:29:13.427Z,8.43
2018-04-12T07:31:40.878Z,11.03
2018-04-12T07:34:08.547Z,21.60
2018-04-12T07:36:36.048Z,10.27
2018-04-12T07:39:03.541Z,9.80
2018-04-12T07:41:31.190Z,11.60
2018-04-12T07:43:58.676Z,13.80
2018-04-12T07:46:26.151Z,11.93
2018-04-12T07:48:53.608Z,10.33
2018-04-12T07:51:21.078Z,9.47
2018-04-12T07:53:48.533Z,10.03
2018-04-12T07:56:16.002Z,8.23
2018-04-12T07:58:44.385Z,8.53
2018-04-12T08:01:12.046Z,10.30
2018-04-12T08:03:39.681Z,9.27
2018-04-12T08:06:07.330Z,10.03
2018-04-12T08:08:34.779Z,18.17
2018-04-12T08:11:02.257Z,11.47
2018-04-12T08:13:29.705Z,9.17
2018-04-12T08:15:57.196Z,8.67
2018-04-12T08:18:24.653Z,9.80
2018-04-12T08:20:52.160Z,12.90
2018-04-12T08:23:19.771Z,14.57
2018-04-12T08:25:47.281Z,11.60
2018-04-12T08:28:15.753Z,14.13
2018-04-12T08:30:43.200Z,11.47
2018-04-12T08:33:10.675Z,11.60
2018-04-12T08:35:38.427Z,8.07
2018-04-12T08:38:05.884Z,10.57
2018-04-12T08:40:33.340Z,14.00
2018-04-12T08:43:00.812Z,14.47
2018-04-12T08:45:28.293Z,16.33
2018-04-12T08:47:55.766Z,11.57
2018-04-12T08:50:23.486Z,11.43
2018-04-12T08:52:51.093Z,8.53
2018-04-12T08:55:18.581Z,9.37
2018-04-12T08:57:46.034Z,12.27
2018-04-12T09:00:13.617Z,12.30
2018-04-12T09:02:41.388Z,11.73
2018-04-12T09:05:09.141Z,17.57
2018-04-12T09:07:36.979Z,6.27
2018-04-12T09:10:04.590Z,12.40
2018-04-12T09:12:32.046Z,10.27
2018-04-12T09:14:59.514Z,11.27
2018-04-12T09:17:26.961Z,11.83
2018-04-12T09:19:54.495Z,14.43
2018-04-12T09:22:21.957Z,8.97
2018-04-12T09:24:49.875Z,6.10
2018-04-12T09:27:17.405Z,17.23
2018-04-12T09:29:44.922Z,6.70
2018-04-12T09:32:12.398Z,7.13
2018-04-12T09:34:40.163Z,9.00
2018-04-12T09:37:07.797Z,7.03
2018-04-12T09:39:35.266Z,7.83
2018-04-12T09:42:02.997Z,10.17
2018-04-12T09:44:30.454Z,10.13
2018-04-12T09:46:57.964Z,10.57
2018-04-12T09:49:25.481Z,5.73
2018-04-12T09:51:52.905Z,11.43
2018-04-12T09:54:20.413Z,7.00
2018-04-12T09:56:47.878Z,5.47
2018-04-12T09:59:15.345Z,9.57
2018-04-12T10:01:48.791Z,5.57
2018-04-12T10:04:16.255Z,8.47
2018-04-12T10:06:43.789Z,7.07
2018-04-12T10:09:14.156Z,7.47
2018-04-12T10:11:41.642Z,7.90
2018-04-12T10:14:09.110Z,11.47
2018-04-12T10:16:37.390Z,6.87
2018-04-12T10:19:04.821Z,6.63
2018-04-12T10:21:32.273Z,10.63
2018-04-12T10:24:00.037Z,5.67
2018-04-12T10:26:27.801Z,8.77
2018-04-12T10:28:55.307Z,8.83
2018-04-12T10:31:22.843Z,8.50
2018-04-12T10:33:50.258Z,7.90
2018-04-12T10:36:17.716Z,11.37
2018-04-12T10:38:45.177Z,7.10
2018-04-12T10:41:12.651Z,6.23
2018-04-12T10:43:40.096Z,14.53
2018-04-12T10:46:07.569Z,8.43
2018-04-12T10:48:35.221Z,5.90
2018-04-12T10:51:02.695Z,5.93
2018-04-12T10:53:30.313Z,8.23
2018-04-12T10:55:57.827Z,8.47
2018-04-12T10:58:25.281Z,6.90
2018-04-12T11:00:53.634Z,6.27
2018-04-12T11:03:21.169Z,4.93
2018-04-12T11:05:48.843Z,6.43
2018-04-12T11:08:16.326Z,9.10
2018-04-12T11:10:43.879Z,7.23
2018-04-12T11:13:12.109Z,10.00
2018-04-12T11:15:39.731Z,9.93
2018-04-12T11:18:07.185Z,7.47
2018-04-12T11:20:34.949Z,8.33
2018-04-12T11:23:02.676Z,10.50
2018-04-12T11:25:30.190Z,7.17
2018-04-12T11:27:57.904Z,7.47
2018-04-12T11:30:25.550Z,9.67
2018-04-12T11:32:53.124Z,6.63
2018-04-12T11:35:20.759Z,6.27
2018-04-12T11:37:48.275Z,8.50
2018-04-12T11:40:15.804Z,8.27
2018-04-12T11:42:43.564Z,12.63
2018-04-12T11:45:11.324Z,6.20
2018-04-12T11:47:39.089Z,11.80
2018-04-12T11:50:06.553Z,6.97
2018-04-12T11:52:34.006Z,5.00
2018-04-12T11:55:01.736Z,5.73
2018-04-12T11:57:29.189Z,7.30
2018-04-12T11:59:56.684Z,6.43
2018-04-12T12:02:24.160Z,9.10
2018-04-12T12:04:52.436Z,6.70
2018-04-12T12:07:19.897Z,11.13
2018-04-12T12:09:47.433Z,7.17
2018-04-12T12:12:15.081Z,6.00
2018-04-12T12:14:42.585Z,12.10
2018-04-12T12:17:10.050Z,6.13
2018-04-12T12:19:37.505Z,5.33
2018-04-12T12:22:04.965Z,7.43
2018-04-12T12:24:32.489Z,7.60
2018-04-12T12:27:00.781Z,7.90
2018-04-12T12:29:28.229Z,5.90
2018-04-12T12:31:56.481Z,6.50
2018-04-12T12:34:24.041Z,7.30
2018-04-12T12:36:51.541Z,5.63
2018-04-12T12:39:18.999Z,10.43
2018-04-12T12:41:46.537Z,9.00
2018-04-12T12:44:14.166Z,10.47
2018-04-12T12:46:41.645Z,9.23
2018-04-12T12:49:09.105Z,7.23
2018-04-12T12:51:36.554Z,11.50
2018-04-12T12:54:04.092Z,8.90
2018-04-12T12:56:31.565Z,9.97
2018-04-12T12:58:59.492Z,5.97
2018-04-12T13:01:27.096Z,6.90
2018-04-12T13:03:54.575Z,5.93
2018-04-12T13:06:22.217Z,7.73
2018-04-12T13:08:49.681Z,8.37
2018-04-12T13:11:17.136Z,10.27
2018-04-12T13:13:44.608Z,5.37
2018-04-12T13:16:12.064Z,5.53
2018-04-12T13:18:39.605Z,15.77
2018-04-12T13:21:07.374Z,6.50
2018-04-12T13:23:34.824Z,6.90
2018-04-12T13:26:04.129Z,10.87
2018-04-12T13:28:31.604Z,11.10
2018-04-12T13:30:59.345Z,3.83
2018-04-12T13:33:26.802Z,7.17
2018-04-12T13:35:54.269Z,6.83
2018-04-12T13:38:23.239Z,7.90
2018-04-12T13:40:50.791Z,6.57
2018-04-12T13:43:18.475Z,7.73
2018-04-12T13:45:45.945Z,7.67
2018-04-12T13:48:13.566Z,5.20
2018-04-12T13:50:41.069Z,4.97
2018-04-12T13:53:08.616Z,7.43
2018-04-12T13:55:36.257Z,9.17
2018-04-12T13:58:03.719Z,6.80
2018-04-12T14:00:31.206Z,6.17
2018-04-12T14:02:58.657Z,8.07
2018-04-12T14:05:26.104Z,5.93
2018-04-12T14:07:53.605Z,8.80
2018-04-12T14:10:21.061Z,8.13
2018-04-12T14:12:48.557Z,7.47
2018-04-12T14:15:16.321Z,8.70
2018-04-12T14:17:43.786Z,7.20
2018-04-12T14:20:11.243Z,6.10
2018-04-12T14:22:38.881Z,8.03
2018-04-12T14:25:06.374Z,4.97
2018-04-12T14:27:33.837Z,3.23
2018-04-12T14:30:01.296Z,6.93
2018-04-12T14:32:28.752Z,3.87
2018-04-12T14:34:56.969Z,6.97
2018-04-12T14:37:24.440Z,4.33
2018-04-12T14:39:51.905Z,8.53
2018-04-12T14:42:19.576Z,5.13
2018-04-12T14:44:47.337Z,5.40
2018-04-12T14:47:14.810Z,6.27
2018-04-12T14:49:43.789Z,9.57
2018-04-12T14:52:11.256Z,10.43
2018-04-12T14:54:38.705Z,8.70
2018-04-12T14:57:06.185Z,6.47
2018-04-12T14:59:33.650Z,5.90
2018-04-12T15:02:01.160Z,7.47
2018-04-12T15:04:28.646Z,8.73
2018-04-12T15:06:56.874Z,8.40
2018-04-12T15:09:24.372Z,8.67
2018-04-12T15:11:51.884Z,6.23
2018-04-12T15:14:19.346Z,6.90
2018-04-12T15:16:46.806Z,6.63
2018-04-12T15:19:14.306Z,9.70
2018-04-12T15:21:41.783Z,8.77
2018-04-12T15:24:10.075Z,8.27
2018-04-12T15:26:37.505Z,7.57
2018-04-12T15:29:04.984Z,8.13
2018-04-12T15:31:32.458Z,6.63
2018-04-12T15:33:59.959Z,7.33
2018-04-12T15:36:27.492Z,4.77
2018-04-12T15:38:54.971Z,7.50
2018-04-12T15:41:22.463Z,7.37
2018-04-12T15:43:50.705Z,6.07
2018-04-12T15:46:18.177Z,5.53
2018-04-12T15:48:45.654Z,6.17
2018-04-12T15:51:13.896Z,8.20
2018-04-12T15:53:41.362Z,9.57
2018-04-12T15:56:08.835Z,8.67
2018-04-12T15:58:36.320Z,17.23
2018-04-12T16:01:03.809Z,5.40
2018-04-12T16:03:31.265Z,11.50
2018-04-12T16:05:58.748Z,13.67
2018-04-12T16:08:26.202Z,6.67
2018-04-12T16:10:53.691Z,6.23
2018-04-12T16:13:21.909Z,11.33
2018-04-12T16:15:49.470Z,10.60
2018-04-12T16:18:17.179Z,10.00
2018-04-12T16:20:44.770Z,9.63
2018-04-12T16:23:12.439Z,9.33
2018-04-12T16:25:39.958Z,16.60
2018-04-12T16:28:08.285Z,21.47
2018-04-12T16:30:35.837Z,11.50
2018-04-12T16:33:03.339Z,7.63
2018-04-12T16:35:31.015Z,9.37
2018-04-12T16:37:58.562Z,10.67
2018-04-12T16:40:26.194Z,11.03
2018-04-12T16:42:53.755Z,9.23
2018-04-12T16:45:21.360Z,12.73
2018-04-12T16:47:48.963Z,11.13
2018-04-12T16:50:16.477Z,7.53
2018-04-12T16:52:44.818Z,9.03
2018-04-12T16:55:12.305Z,9.03
2018-04-12T16:57:40.004Z,6.47
2018-04-12T17:00:07.544Z,10.63
2018-04-12T17:02:35.089Z,10.90
2018-04-12T17:05:03.623Z,11.83
2018-04-12T17:07:31.326Z,16.33
2018-04-12T17:09:59.684Z,8.97
2018-04-12T17:12:27.213Z,9.17
2018-04-12T17:14:54.746Z,10.17
2018-04-12T17:17:22.236Z,8.77
2018-04-12T17:19:49.719Z,6.97
2018-04-12T17:22:17.405Z,6.87
2018-04-12T17:24:44.923Z,7.67
2018-04-12T17:27:12.425Z,7.13
2018-04-12T17:29:40.003Z,13.07
2018-04-12T17:32:07.598Z,9.93
2018-04-12T17:34:35.883Z,9.80
2018-04-12T17:37:03.435Z,15.17
2018-04-12T17:39:30.985Z,7.67
2018-04-12T17:41:58.457Z,13.37
2018-04-12T17:44:26.067Z,12.43
2018-04-12T17:46:53.574Z,9.03
2018-04-12T17:49:21.262Z,7.93
2018-04-12T17:51:48.850Z,13.07
2018-04-12T17:54:16.364Z,8.63
2018-04-12T17:56:43.899Z,7.13
2018-04-12T17:59:11.523Z,8.40
2018-04-12T18:01:39.208Z,5.30
2018-04-12T18:04:06.805Z,8.53
2018-04-12T18:06:34.277Z,6.83
2018-04-12T18:09:01.762Z,6.30
2018-04-12T18:11:30.056Z,18.03
2018-04-12T18:13:57.592Z,5.67
2018-04-12T18:16:25.890Z,5.40
2018-04-12T18:18:53.477Z,8.83
2018-04-12T18:21:21.588Z,3.57
2018-04-12T18:23:49.193Z,9.03
2018-04-12T18:26:16.838Z,6.37
2018-04-12T18:28:44.296Z,6.50
2018-04-12T18:31:11.770Z,15.50
2018-04-12T18:33:39.417Z,9.43
2018-04-12T18:36:07.006Z,4.33
2018-04-12T18:38:34.529Z,12.23
2018-04-12T18:41:02.055Z,7.50
2018-04-12T18:43:29.552Z,10.50
2018-04-12T18:45:57.050Z,7.53
2018-04-12T18:48:24.528Z,4.33
2018-04-12T18:50:52.688Z,8.20
2018-04-12T18:53:20.269Z,10.10
2018-04-12T18:55:47.851Z,15.97
2018-04-12T18:58:15.358Z,5.37
2018-04-12T19:00:43.041Z,9.50
2018-04-12T19:03:10.626Z,5.90
2018-04-12T19:05:38.910Z,7.63
2018-04-12T19:08:06.499Z,12.03
2018-04-12T19:10:33.940Z,7.90
2018-04-12T19:13:01.475Z,6.57
2018-04-12T19:15:29.021Z,5.93
2018-04-12T19:17:56.501Z,13.47
2018-04-12T19:20:23.981Z,41.03
2018-04-12T19:22:51.485Z,11.97
2018-04-12T19:25:18.950Z,8.37
2018-04-12T19:27:46.421Z,3.97
2018-04-12T19:30:13.910Z,7.20
2018-04-12T19:32:41.395Z,37.40
2018-04-12T19:35:08.864Z,7.90
2018-04-12T19:37:36.355Z,11.43
2018-04-12T19:40:04.613Z,11.67
2018-04-12T19:42:32.100Z,13.43
2018-04-12T19:44:59.568Z,6.80
2018-04-12T19:47:27.030Z,23.23
2018-04-12T19:49:54.506Z,13.73
2018-04-12T19:52:21.989Z,7.60
2018-04-12T19:54:49.464Z,4.23
2018-04-12T19:57:17.689Z,6.70
2018-04-12T19:59:45.174Z,7.57
2018-04-12T20:02:12.666Z,6.30
2018-04-12T20:04:40.402Z,8.67
2018-04-12T20:07:07.865Z,7.37
2018-04-12T20:09:35.354Z,4.37
2018-04-12T20:12:02.818Z,6.80
2018-04-12T20:14:30.290Z,6.60
2018-04-12T20:16:57.925Z,5.77
2018-04-12T20:19:25.403Z,4.47
2018-04-12T20:21:52.856Z,8.33
2018-04-12T20:24:20.306Z,6.83
2018-04-12T20:26:47.783Z,5.57
2018-04-12T20:29:15.269Z,8.90
2018-04-12T20:31:42.737Z,9.03
2018-04-12T20:34:10.206Z,7.73
2018-04-12T20:36:37.878Z,10.77
2018-04-12T20:39:05.380Z,6.10
2018-04-12T20:41:32.852Z,4.97
2018-04-12T20:44:00.340Z,5.87
2018-04-12T20:46:27.809Z,5.83
2018-04-12T20:48:55.292Z,3.83
2018-04-12T20:51:22.998Z,6.07
2018-04-12T20:53:50.462Z,7.73
2018-04-12T20:56:17.917Z,5.37
2018-04-12T20:58:45.674Z,4.10
2018-04-12T21:01:13.140Z,5.93
2018-04-12T21:03:40.604Z,5.10
2018-04-12T21:06:08.133Z,5.27
2018-04-12T21:08:35.758Z,6.43
2018-04-12T21:11:04.161Z,7.47
2018-04-12T21:13:31.657Z,7.87
2018-04-12T21:15:59.127Z,6.67
2018-04-12T21:18:26.634Z,4.80
2018-04-12T21:20:54.098Z,9.90
2018-04-12T21:23:21.549Z,7.87
2018-04-12T21:25:49.118Z,8.03
2018-04-12T21:28:16.565Z,6.37
2018-04-12T21:30:44.154Z,6.03
2018-04-12T21:33:11.610Z,6.70
2018-04-12T21:35:39.321Z,5.43
2018-04-12T21:38:06.798Z,5.50
2018-04-12T21:40:34.270Z,6.00
2018-04-12T21:43:01.783Z,5.97
2018-04-12T21:45:29.301Z,6.43
2018-04-12T21:47:56.762Z,7.13
2018-04-12T21:50:24.246Z,4.90
2018-04-12T21:52:52.481Z,6.40
2018-04-12T21:55:19.958Z,6.50
2018-04-12T21:57:47.412Z,8.93
2018-04-12T22:00:14.918Z,6.63
2018-04-12T22:02:42.628Z,10.63
2018-04-12T22:05:10.090Z,8.43
2018-04-12T22:07:37.545Z,9.50
2018-04-12T22:10:05.205Z,7.50
2018-04-12T22:12:32.661Z,5.67
2018-04-12T22:15:00.213Z,5.00
2018-04-12T22:17:27.669Z,5.83
2018-04-12T22:19:55.963Z,5.90
2018-04-12T22:22:23.429Z,4.10
2018-04-12T22:24:50.872Z,8.07
2018-04-12T22:27:18.332Z,6.33
2018-04-12T22:29:45.780Z,5.40
2018-04-12T22:32:13.245Z,17.27
2018-04-12T22:34:40.704Z,12.20
2018-04-12T22:37:08.241Z,6.60
2018-04-12T22:39:35.715Z,6.47
2018-04-12T22:42:03.380Z,16.87
2018-04-12T22:44:30.920Z,14.63
2018-04-12T22:46:58.593Z,15.70
2018-04-12T22:49:26.109Z,6.77
2018-04-12T22:51:53.604Z,7.23
2018-04-12T22:54:21.406Z,6.80
2018-04-12T22:56:49.036Z,14.17
2018-04-12T22:59:16.492Z,7.80
2018-04-12T23:01:43.960Z,9.80
2018-04-12T23:04:11.406Z,6.30
2018-04-12T23:06:38.876Z,10.97
2018-04-12T23:09:06.413Z,12.23
2018-04-12T23:11:33.985Z,14.20
2018-04-12T23:14:01.546Z,7.53
2018-04-12T23:16:30.009Z,6.57
2018-04-12T23:18:57.772Z,7.53
2018-04-12T23:21:25.626Z,13.17
2018-04-12T23:23:53.159Z,15.17
2018-04-12T23:26:20.573Z,21.50
2018-04-12T23:28:48.793Z,20.87
2018-04-12T23:31:16.264Z,12.53
2018-04-12T23:33:43.930Z,7.87
2018-04-12T23:36:11.505Z,14.10
2018-04-12T23:38:39.140Z,12.03
2018-04-12T23:41:06.592Z,9.70
2018-04-12T23:43:34.096Z,5.80
2018-04-12T23:46:02.473Z,7.80
2018-04-12T23:48:30.018Z,10.33
2018-04-12T23:50:57.665Z,11.50
2018-04-12T23:53:25.122Z,8.13
2018-04-12T23:55:52.604Z,8.17
2018-04-12T23:58:20.070Z,8.73
